sensor_id;sensor_type;location;lat;lon;timestamp;pressure;altitude;pressure_sealevel;temperature;humidity
54936;BME280;40838;50.676;7.838;2023-03-26T00:01:18;97540.97;;;3.61;100.00
54936;BME280;40838;50.676;7.838;2023-03-26T00:03:46;97542.22;;;3.53;100.00
54936;BME280;40838;50.676;7.838;2023-03-26T00:06:20;97547.00;;;3.57;100.00
54936;BME280;40838;50.676;7.838;2023-03-26T00:08:47;97549.69;;;3.35;100.00
54936;BME280;40838;50.676;7.838;2023-03-26T00:11:18;97552.09;;;3.41;100.00
54936;BME280;40838;50.676;7.838;2023-03-26T00:13:45;97551.38;;;3.46;100.00
54936;BME280;40838;50.676;7.838;2023-03-26T00:16:14;97556.44;;;3.52;100.00
54936;BME280;40838;50.676;7.838;2023-03-26T00:18:41;97558.41;;;3.67;100.00
54936;BME280;40838;50.676;7.838;2023-03-26T00:21:11;97557.97;;;3.48;100.00
54936;BME280;40838;50.676;7.838;2023-03-26T00:23:39;97558.47;;;3.45;100.00
54936;BME280;40838;50.676;7.838;2023-03-26T00:26:06;97555.78;;;3.40;100.00
54936;BME280;40838;50.676;7.838;2023-03-26T00:28:37;97559.69;;;3.65;100.00
54936;BME280;40838;50.676;7.838;2023-03-26T00:31:06;97560.03;;;3.73;100.00
54936;BME280;40838;50.676;7.838;2023-03-26T00:33:33;97555.00;;;3.40;100.00
54936;BME280;40838;50.676;7.838;2023-03-26T00:36:04;97557.91;;;3.70;100.00
54936;BME280;40838;50.676;7.838;2023-03-26T00:38:34;97555.19;;;3.60;100.00
54936;BME280;40838;50.676;7.838;2023-03-26T00:41:04;97555.06;;;3.45;100.00
54936;BME280;40838;50.676;7.838;2023-03-26T00:43:34;97563.91;;;3.34;100.00
54936;BME280;40838;50.676;7.838;2023-03-26T00:46:03;97560.50;;;3.38;100.00
54936;BME280;40838;50.676;7.838;2023-03-26T00:48:30;97556.53;;;3.36;100.00
54936;BME280;40838;50.676;7.838;2023-03-26T00:50:58;97559.41;;;3.34;100.00
54936;BME280;40838;50.676;7.838;2023-03-26T00:53:25;97553.50;;;3.49;100.00
54936;BME280;40838;50.676;7.838;2023-03-26T00:55:52;97549.28;;;3.48;100.00
54936;BME280;40838;50.676;7.838;2023-03-26T00:58:25;97543.34;;;3.36;100.00
54936;BME280;40838;50.676;7.838;2023-03-26T01:00:55;97548.59;;;3.30;100.00
54936;BME280;40838;50.676;7.838;2023-03-26T01:03:25;97544.50;;;3.18;100.00
54936;BME280;40838;50.676;7.838;2023-03-26T01:05:57;97541.94;;;3.23;100.00
54936;BME280;40838;50.676;7.838;2023-03-26T01:08:31;97539.34;;;3.55;100.00
54936;BME280;40838;50.676;7.838;2023-03-26T01:11:02;97532.97;;;3.24;100.00
54936;BME280;40838;50.676;7.838;2023-03-26T01:13:35;97534.03;;;3.23;100.00
54936;BME280;40838;50.676;7.838;2023-03-26T01:16:05;97531.25;;;3.35;100.00
54936;BME280;40838;50.676;7.838;2023-03-26T01:18:37;97532.88;;;3.41;100.00
54936;BME280;40838;50.676;7.838;2023-03-26T01:21:07;97518.22;;;3.50;100.00
54936;BME280;40838;50.676;7.838;2023-03-26T01:23:43;97513.88;;;3.34;100.00
54936;BME280;40838;50.676;7.838;2023-03-26T01:26:22;97514.50;;;3.46;100.00
54936;BME280;40838;50.676;7.838;2023-03-26T01:28:54;97510.31;;;3.50;100.00
54936;BME280;40838;50.676;7.838;2023-03-26T01:31:25;97504.38;;;3.32;100.00
54936;BME280;40838;50.676;7.838;2023-03-26T01:33:58;97505.81;;;3.18;100.00
54936;BME280;40838;50.676;7.838;2023-03-26T01:36:35;97507.75;;;3.28;100.00
54936;BME280;40838;50.676;7.838;2023-03-26T01:39:08;97498.06;;;3.34;100.00
54936;BME280;40838;50.676;7.838;2023-03-26T01:41:46;97497.53;;;3.31;100.00
54936;BME280;40838;50.676;7.838;2023-03-26T01:44:19;97495.69;;;3.32;100.00
54936;BME280;40838;50.676;7.838;2023-03-26T01:46:48;97494.22;;;3.46;100.00
54936;BME280;40838;50.676;7.838;2023-03-26T01:49:16;97500.22;;;3.42;100.00
54936;BME280;40838;50.676;7.838;2023-03-26T01:51:43;97479.59;;;3.61;100.00
54936;BME280;40838;50.676;7.838;2023-03-26T01:54:12;97483.63;;;3.68;100.00
54936;BME280;40838;50.676;7.838;2023-03-26T01:56:49;97485.94;;;3.65;100.00
54936;BME280;40838;50.676;7.838;2023-03-26T01:59:44;97475.56;;;3.48;100.00
54936;BME280;40838;50.676;7.838;2023-03-26T02:02:18;97476.09;;;3.50;100.00
54936;BME280;40838;50.676;7.838;2023-03-26T02:04:51;97479.31;;;3.57;100.00
54936;BME280;40838;50.676;7.838;2023-03-26T02:07:24;97475.75;;;3.41;100.00
54936;BME280;40838;50.676;7.838;2023-03-26T02:09:56;97478.69;;;3.45;100.00
54936;BME280;40838;50.676;7.838;2023-03-26T02:12:26;97475.00;;;3.46;100.00
54936;BME280;40838;50.676;7.838;2023-03-26T02:14:54;97475.09;;;2.97;100.00
54936;BME280;40838;50.676;7.838;2023-03-26T02:17:21;97474.56;;;3.27;100.00
54936;BME280;40838;50.676;7.838;2023-03-26T02:19:49;97473.84;;;3.04;100.00
54936;BME280;40838;50.676;7.838;2023-03-26T02:22:16;97472.44;;;2.97;100.00
54936;BME280;40838;50.676;7.838;2023-03-26T02:24:45;97470.78;;;3.13;100.00
54936;BME280;40838;50.676;7.838;2023-03-26T02:27:12;97465.34;;;2.97;100.00
54936;BME280;40838;50.676;7.838;2023-03-26T02:29:45;97456.28;;;3.10;100.00
54936;BME280;40838;50.676;7.838;2023-03-26T02:32:16;97454.38;;;3.05;100.00
54936;BME280;40838;50.676;7.838;2023-03-26T02:34:44;97443.84;;;3.05;100.00
54936;BME280;40838;50.676;7.838;2023-03-26T02:37:12;97443.97;;;3.21;100.00
54936;BME280;40838;50.676;7.838;2023-03-26T02:39:41;97436.13;;;3.26;100.00
54936;BME280;40838;50.676;7.838;2023-03-26T02:42:18;97421.34;;;3.20;100.00
54936;BME280;40838;50.676;7.838;2023-03-26T02:44:49;97421.59;;;3.18;100.00
54936;BME280;40838;50.676;7.838;2023-03-26T02:47:19;97422.31;;;3.08;100.00
54936;BME280;40838;50.676;7.838;2023-03-26T02:49:51;97424.59;;;3.00;100.00
54936;BME280;40838;50.676;7.838;2023-03-26T02:52:35;97408.50;;;2.96;100.00
54936;BME280;40838;50.676;7.838;2023-03-26T02:55:02;97410.06;;;2.92;100.00
54936;BME280;40838;50.676;7.838;2023-03-26T02:57:30;97407.19;;;2.67;100.00
54936;BME280;40838;50.676;7.838;2023-03-26T02:59:58;97408.47;;;2.64;100.00
54936;BME280;40838;50.676;7.838;2023-03-26T03:02:34;97405.78;;;2.59;100.00
54936;BME280;40838;50.676;7.838;2023-03-26T03:05:21;97411.09;;;2.64;100.00
54936;BME280;40838;50.676;7.838;2023-03-26T03:08:02;97409.59;;;2.73;100.00
54936;BME280;40838;50.676;7.838;2023-03-26T03:10:32;97407.91;;;2.18;100.00
54936;BME280;40838;50.676;7.838;2023-03-26T03:13:03;97409.69;;;2.12;100.00
54936;BME280;40838;50.676;7.838;2023-03-26T03:15:34;97397.72;;;2.00;100.00
54936;BME280;40838;50.676;7.838;2023-03-26T03:18:01;97392.56;;;1.88;100.00
54936;BME280;40838;50.676;7.838;2023-03-26T03:20:31;97399.91;;;2.08;100.00
54936;BME280;40838;50.676;7.838;2023-03-26T03:23:00;97395.06;;;2.22;100.00
54936;BME280;40838;50.676;7.838;2023-03-26T03:25:28;97385.38;;;2.44;100.00
54936;BME280;40838;50.676;7.838;2023-03-26T03:27:55;97388.84;;;2.50;100.00
54936;BME280;40838;50.676;7.838;2023-03-26T03:30:22;97390.25;;;1.91;100.00
54936;BME280;40838;50.676;7.838;2023-03-26T03:33:13;97388.66;;;2.34;100.00
54936;BME280;40838;50.676;7.838;2023-03-26T03:35:40;97378.63;;;2.53;100.00
54936;BME280;40838;50.676;7.838;2023-03-26T03:38:07;97377.38;;;2.34;100.00
54936;BME280;40838;50.676;7.838;2023-03-26T03:40:43;97367.28;;;2.26;100.00
54936;BME280;40838;50.676;7.838;2023-03-26T03:43:10;97363.38;;;2.06;100.00
54936;BME280;40838;50.676;7.838;2023-03-26T03:45:47;97356.28;;;2.07;100.00
54936;BME280;40838;50.676;7.838;2023-03-26T03:48:32;97363.41;;;2.33;100.00
54936;BME280;40838;50.676;7.838;2023-03-26T03:51:05;97364.97;;;2.07;100.00
54936;BME280;40838;50.676;7.838;2023-03-26T03:53:45;97368.31;;;2.25;100.00
54936;BME280;40838;50.676;7.838;2023-03-26T03:56:15;97368.25;;;2.20;100.00
54936;BME280;40838;50.676;7.838;2023-03-26T03:59:16;97363.88;;;1.81;100.00
54936;BME280;40838;50.676;7.838;2023-03-26T04:01:43;97348.72;;;2.10;100.00
54936;BME280;40838;50.676;7.838;2023-03-26T04:04:27;97347.13;;;2.36;100.00
54936;BME280;40838;50.676;7.838;2023-03-26T04:07:02;97349.19;;;2.29;100.00
54936;BME280;40838;50.676;7.838;2023-03-26T04:09:49;97346.94;;;1.94;100.00
54936;BME280;40838;50.676;7.838;2023-03-26T04:12:18;97342.41;;;1.89;100.00
54936;BME280;40838;50.676;7.838;2023-03-26T04:14:54;97338.72;;;2.07;100.00
54936;BME280;40838;50.676;7.838;2023-03-26T04:17:22;97330.28;;;2.32;100.00
54936;BME280;40838;50.676;7.838;2023-03-26T04:19:54;97324.91;;;2.44;100.00
54936;BME280;40838;50.676;7.838;2023-03-26T04:22:25;97325.56;;;2.07;100.00
54936;BME280;40838;50.676;7.838;2023-03-26T04:25:00;97317.34;;;1.60;100.00
54936;BME280;40838;50.676;7.838;2023-03-26T04:28:08;97309.97;;;2.01;100.00
54936;BME280;40838;50.676;7.838;2023-03-26T04:30:52;97318.97;;;2.05;100.00
54936;BME280;40838;50.676;7.838;2023-03-26T04:33:32;97308.56;;;2.15;100.00
54936;BME280;40838;50.676;7.838;2023-03-26T04:36:01;97314.75;;;1.82;100.00
54936;BME280;40838;50.676;7.838;2023-03-26T04:38:40;97308.75;;;2.08;100.00
54936;BME280;40838;50.676;7.838;2023-03-26T04:41:10;97303.06;;;2.16;100.00
54936;BME280;40838;50.676;7.838;2023-03-26T04:43:57;97295.63;;;2.08;100.00
54936;BME280;40838;50.676;7.838;2023-03-26T04:46:45;97286.59;;;1.99;100.00
54936;BME280;40838;50.676;7.838;2023-03-26T04:49:28;97279.00;;;2.03;100.00
54936;BME280;40838;50.676;7.838;2023-03-26T04:51:57;97276.13;;;2.04;100.00
54936;BME280;40838;50.676;7.838;2023-03-26T04:54:59;97271.06;;;1.98;100.00
54936;BME280;40838;50.676;7.838;2023-03-26T04:57:30;97260.00;;;1.95;100.00
54936;BME280;40838;50.676;7.838;2023-03-26T05:00:06;97258.47;;;1.72;100.00
54936;BME280;40838;50.676;7.838;2023-03-26T05:02:41;97257.41;;;2.23;100.00
54936;BME280;40838;50.676;7.838;2023-03-26T05:05:09;97251.88;;;2.19;100.00
54936;BME280;40838;50.676;7.838;2023-03-26T05:07:38;97244.16;;;2.12;100.00
54936;BME280;40838;50.676;7.838;2023-03-26T05:10:11;97240.19;;;2.10;100.00
54936;BME280;40838;50.676;7.838;2023-03-26T05:12:47;97237.41;;;1.94;100.00
54936;BME280;40838;50.676;7.838;2023-03-26T05:15:19;97231.78;;;2.08;100.00
54936;BME280;40838;50.676;7.838;2023-03-26T05:18:06;97226.69;;;1.74;100.00
54936;BME280;40838;50.676;7.838;2023-03-26T05:20:38;97214.72;;;2.10;100.00
54936;BME280;40838;50.676;7.838;2023-03-26T05:23:08;97220.56;;;1.90;100.00
54936;BME280;40838;50.676;7.838;2023-03-26T05:25:41;97205.19;;;2.04;100.00
54936;BME280;40838;50.676;7.838;2023-03-26T05:28:14;97205.34;;;1.92;100.00
54936;BME280;40838;50.676;7.838;2023-03-26T05:30:53;97196.28;;;2.05;100.00
54936;BME280;40838;50.676;7.838;2023-03-26T05:33:21;97194.72;;;2.09;100.00
54936;BME280;40838;50.676;7.838;2023-03-26T05:35:58;97190.09;;;2.16;100.00
54936;BME280;40838;50.676;7.838;2023-03-26T05:38:28;97189.25;;;2.11;100.00
54936;BME280;40838;50.676;7.838;2023-03-26T05:40:57;97180.22;;;2.02;100.00
54936;BME280;40838;50.676;7.838;2023-03-26T05:43:25;97182.66;;;2.08;100.00
54936;BME280;40838;50.676;7.838;2023-03-26T05:46:20;97179.91;;;1.98;100.00
54936;BME280;40838;50.676;7.838;2023-03-26T05:48:48;97172.72;;;2.15;100.00
54936;BME280;40838;50.676;7.838;2023-03-26T05:51:18;97175.59;;;2.14;100.00
54936;BME280;40838;50.676;7.838;2023-03-26T05:53:56;97169.25;;;2.10;100.00
54936;BME280;40838;50.676;7.838;2023-03-26T05:56:35;97160.53;;;2.04;100.00
54936;BME280;40838;50.676;7.838;2023-03-26T05:59:01;97165.50;;;2.01;100.00
54936;BME280;40838;50.676;7.838;2023-03-26T06:01:31;97147.66;;;2.03;100.00
54936;BME280;40838;50.676;7.838;2023-03-26T06:04:18;97142.06;;;1.94;100.00
54936;BME280;40838;50.676;7.838;2023-03-26T06:06:57;97138.28;;;2.12;100.00
54936;BME280;40838;50.676;7.838;2023-03-26T06:09:28;97135.72;;;1.63;100.00
54936;BME280;40838;50.676;7.838;2023-03-26T06:11:55;97135.53;;;1.69;100.00
54936;BME280;40838;50.676;7.838;2023-03-26T06:14:21;97136.78;;;1.62;100.00
54936;BME280;40838;50.676;7.838;2023-03-26T06:17:12;97127.53;;;1.81;100.00
54936;BME280;40838;50.676;7.838;2023-03-26T06:19:58;97130.53;;;1.68;100.00
54936;BME280;40838;50.676;7.838;2023-03-26T06:22:34;97127.13;;;1.67;100.00
54936;BME280;40838;50.676;7.838;2023-03-26T06:25:28;97125.22;;;1.63;100.00
54936;BME280;40838;50.676;7.838;2023-03-26T06:28:13;97111.06;;;1.64;100.00
54936;BME280;40838;50.676;7.838;2023-03-26T06:30:51;97126.19;;;1.79;100.00
54936;BME280;40838;50.676;7.838;2023-03-26T06:33:42;97122.72;;;1.73;100.00
54936;BME280;40838;50.676;7.838;2023-03-26T06:36:10;97110.59;;;1.72;100.00
54936;BME280;40838;50.676;7.838;2023-03-26T06:38:37;97108.03;;;1.77;100.00
54936;BME280;40838;50.676;7.838;2023-03-26T06:41:07;97099.91;;;1.79;100.00
54936;BME280;40838;50.676;7.838;2023-03-26T06:43:52;97108.31;;;1.81;100.00
54936;BME280;40838;50.676;7.838;2023-03-26T06:46:37;97088.97;;;1.87;100.00
54936;BME280;40838;50.676;7.838;2023-03-26T06:49:23;97095.69;;;1.78;100.00
54936;BME280;40838;50.676;7.838;2023-03-26T06:52:10;97090.06;;;1.64;100.00
54936;BME280;40838;50.676;7.838;2023-03-26T06:54:57;97091.44;;;1.71;100.00
54936;BME280;40838;50.676;7.838;2023-03-26T06:57:55;97081.78;;;1.77;100.00
54936;BME280;40838;50.676;7.838;2023-03-26T07:00:52;97075.09;;;1.64;100.00
54936;BME280;40838;50.676;7.838;2023-03-26T07:03:38;97075.66;;;1.66;100.00
54936;BME280;40838;50.676;7.838;2023-03-26T07:06:24;97064.28;;;1.88;100.00
54936;BME280;40838;50.676;7.838;2023-03-26T07:09:09;97065.31;;;2.24;100.00
54936;BME280;40838;50.676;7.838;2023-03-26T07:11:54;97049.69;;;2.39;100.00
54936;BME280;40838;50.676;7.838;2023-03-26T07:14:41;97051.16;;;2.25;100.00
54936;BME280;40838;50.676;7.838;2023-03-26T07:17:28;97049.06;;;1.90;100.00
54936;BME280;40838;50.676;7.838;2023-03-26T07:20:13;97050.03;;;1.79;100.00
54936;BME280;40838;50.676;7.838;2023-03-26T07:22:41;97054.22;;;1.80;100.00
54936;BME280;40838;50.676;7.838;2023-03-26T07:25:16;97051.22;;;1.66;100.00
54936;BME280;40838;50.676;7.838;2023-03-26T07:27:54;97045.44;;;1.96;100.00
54936;BME280;40838;50.676;7.838;2023-03-26T07:30:58;97053.84;;;1.98;100.00
54936;BME280;40838;50.676;7.838;2023-03-26T07:33:44;97046.41;;;2.22;100.00
54936;BME280;40838;50.676;7.838;2023-03-26T07:36:42;97035.94;;;2.32;100.00
54936;BME280;40838;50.676;7.838;2023-03-26T07:39:39;97031.47;;;2.28;100.00
54936;BME280;40838;50.676;7.838;2023-03-26T07:42:38;97035.22;;;2.42;100.00
54936;BME280;40838;50.676;7.838;2023-03-26T07:45:30;97029.75;;;2.49;100.00
54936;BME280;40838;50.676;7.838;2023-03-26T07:48:22;97031.94;;;2.25;100.00
54936;BME280;40838;50.676;7.838;2023-03-26T07:51:05;97035.84;;;2.17;100.00
54936;BME280;40838;50.676;7.838;2023-03-26T07:54:02;97035.84;;;2.17;100.00
54936;BME280;40838;50.676;7.838;2023-03-26T07:56:45;97028.00;;;2.22;100.00
54936;BME280;40838;50.676;7.838;2023-03-26T07:59:39;97020.19;;;1.95;100.00
54936;BME280;40838;50.676;7.838;2023-03-26T08:02:40;97025.84;;;1.77;100.00
54936;BME280;40838;50.676;7.838;2023-03-26T08:05:33;97011.28;;;1.96;100.00
54936;BME280;40838;50.676;7.838;2023-03-26T08:08:11;97025.25;;;2.44;100.00
54936;BME280;40838;50.676;7.838;2023-03-26T08:11:03;97015.06;;;2.15;100.00
54936;BME280;40838;50.676;7.838;2023-03-26T08:13:52;97012.03;;;1.91;100.00
54936;BME280;40838;50.676;7.838;2023-03-26T08:16:24;97003.25;;;2.18;100.00
54936;BME280;40838;50.676;7.838;2023-03-26T08:18:58;97000.56;;;2.03;100.00
54936;BME280;40838;50.676;7.838;2023-03-26T08:21:33;96994.16;;;1.88;100.00
54936;BME280;40838;50.676;7.838;2023-03-26T08:24:06;96993.66;;;1.91;100.00
54936;BME280;40838;50.676;7.838;2023-03-26T08:26:38;96993.72;;;1.64;100.00
54936;BME280;40838;50.676;7.838;2023-03-26T08:29:25;96997.31;;;1.90;100.00
54936;BME280;40838;50.676;7.838;2023-03-26T08:31:54;97001.09;;;1.35;100.00
54936;BME280;40838;50.676;7.838;2023-03-26T08:34:22;97000.25;;;1.62;100.00
54936;BME280;40838;50.676;7.838;2023-03-26T08:36:51;96999.66;;;1.22;100.00
54936;BME280;40838;50.676;7.838;2023-03-26T08:39:18;96999.56;;;1.12;100.00
54936;BME280;40838;50.676;7.838;2023-03-26T08:42:18;97004.78;;;1.39;100.00
54936;BME280;40838;50.676;7.838;2023-03-26T08:48:27;96999.41;;;1.24;100.00
54936;BME280;40838;50.676;7.838;2023-03-26T08:51:28;96995.00;;;1.30;100.00
54936;BME280;40838;50.676;7.838;2023-03-26T08:54:28;96991.69;;;1.39;100.00
54936;BME280;40838;50.676;7.838;2023-03-26T08:57:16;96992.09;;;1.26;100.00
54936;BME280;40838;50.676;7.838;2023-03-26T09:03:06;96994.41;;;1.49;100.00
54936;BME280;40838;50.676;7.838;2023-03-26T09:15:31;96978.47;;;0.75;100.00
54936;BME280;40838;50.676;7.838;2023-03-26T09:18:27;96982.06;;;1.50;100.00
54936;BME280;40838;50.676;7.838;2023-03-26T09:24:32;96961.16;;;1.01;100.00
54936;BME280;40838;50.676;7.838;2023-03-26T09:27:13;96962.88;;;0.90;100.00
54936;BME280;40838;50.676;7.838;2023-03-26T09:30:13;96954.84;;;0.48;100.00
54936;BME280;40838;50.676;7.838;2023-03-26T09:35:52;96939.59;;;0.94;100.00
54936;BME280;40838;50.676;7.838;2023-03-26T09:38:35;96938.81;;;0.93;100.00
54936;BME280;40838;50.676;7.838;2023-03-26T09:41:13;96933.81;;;0.65;100.00
54936;BME280;40838;50.676;7.838;2023-03-26T09:46:45;96925.63;;;1.15;100.00
54936;BME280;40838;50.676;7.838;2023-03-26T09:49:37;96938.72;;;0.83;100.00
54936;BME280;40838;50.676;7.838;2023-03-26T09:52:23;96935.00;;;1.06;100.00
54936;BME280;40838;50.676;7.838;2023-03-26T09:58:04;96914.09;;;1.54;100.00
54936;BME280;40838;50.676;7.838;2023-03-26T10:00:40;96908.56;;;1.50;100.00
54936;BME280;40838;50.676;7.838;2023-03-26T10:03:19;96902.44;;;1.77;100.00
54936;BME280;40838;50.676;7.838;2023-03-26T10:05:57;96893.41;;;2.05;100.00
54936;BME280;40838;50.676;7.838;2023-03-26T10:08:56;96893.81;;;1.86;100.00
54936;BME280;40838;50.676;7.838;2023-03-26T10:11:38;96896.41;;;1.76;100.00
54936;BME280;40838;50.676;7.838;2023-03-26T10:14:17;96887.50;;;1.82;100.00
54936;BME280;40838;50.676;7.838;2023-03-26T10:16:54;96887.13;;;2.16;100.00
54936;BME280;40838;50.676;7.838;2023-03-26T10:19:38;96880.13;;;2.37;100.00
54936;BME280;40838;50.676;7.838;2023-03-26T10:22:21;96887.41;;;4.24;100.00
54936;BME280;40838;50.676;7.838;2023-03-26T10:25:16;96882.81;;;3.70;100.00
54936;BME280;40838;50.676;7.838;2023-03-26T10:27:55;96875.78;;;3.19;100.00
54936;BME280;40838;50.676;7.838;2023-03-26T10:30:36;96881.81;;;2.84;100.00
54936;BME280;40838;50.676;7.838;2023-03-26T10:33:21;96875.53;;;2.95;100.00
54936;BME280;40838;50.676;7.838;2023-03-26T10:35:58;96885.41;;;2.47;100.00
54936;BME280;40838;50.676;7.838;2023-03-26T10:38:38;96872.53;;;2.40;100.00
54936;BME280;40838;50.676;7.838;2023-03-26T10:41:15;96878.13;;;2.75;100.00
54936;BME280;40838;50.676;7.838;2023-03-26T10:43:58;96871.00;;;2.55;100.00
54936;BME280;40838;50.676;7.838;2023-03-26T10:49:43;96874.19;;;2.72;100.00
54936;BME280;40838;50.676;7.838;2023-03-26T10:52:17;96852.31;;;2.61;100.00
54936;BME280;40838;50.676;7.838;2023-03-26T10:54:52;96868.66;;;2.99;100.00
54936;BME280;40838;50.676;7.838;2023-03-26T10:57:34;96852.88;;;3.09;100.00
54936;BME280;40838;50.676;7.838;2023-03-26T11:00:13;96850.25;;;2.94;100.00
54936;BME280;40838;50.676;7.838;2023-03-26T11:02:46;96845.75;;;2.79;100.00
54936;BME280;40838;50.676;7.838;2023-03-26T11:05:29;96849.97;;;2.75;100.00
54936;BME280;40838;50.676;7.838;2023-03-26T11:08:01;96852.09;;;2.83;100.00
54936;BME280;40838;50.676;7.838;2023-03-26T11:10:39;96840.25;;;3.22;100.00
54936;BME280;40838;50.676;7.838;2023-03-26T11:13:14;96845.50;;;3.12;100.00
54936;BME280;40838;50.676;7.838;2023-03-26T11:15:47;96832.56;;;3.36;100.00
54936;BME280;40838;50.676;7.838;2023-03-26T11:18:21;96838.13;;;2.68;100.00
54936;BME280;40838;50.676;7.838;2023-03-26T11:21:00;96837.56;;;2.40;100.00
54936;BME280;40838;50.676;7.838;2023-03-26T11:23:35;96839.72;;;2.84;100.00
54936;BME280;40838;50.676;7.838;2023-03-26T11:26:09;96834.72;;;2.88;100.00
54936;BME280;40838;50.676;7.838;2023-03-26T11:29:04;96833.91;;;2.51;100.00
54936;BME280;40838;50.676;7.838;2023-03-26T11:31:43;96836.84;;;2.80;100.00
54936;BME280;40838;50.676;7.838;2023-03-26T11:34:15;96838.88;;;2.48;100.00
54936;BME280;40838;50.676;7.838;2023-03-26T11:36:45;96826.31;;;2.85;100.00
54936;BME280;40838;50.676;7.838;2023-03-26T11:39:20;96816.84;;;2.69;100.00
54936;BME280;40838;50.676;7.838;2023-03-26T11:42:02;96816.84;;;3.00;100.00
54936;BME280;40838;50.676;7.838;2023-03-26T11:44:44;96816.81;;;3.25;100.00
54936;BME280;40838;50.676;7.838;2023-03-26T11:47:14;96806.84;;;2.87;100.00
54936;BME280;40838;50.676;7.838;2023-03-26T11:49:45;96813.09;;;3.42;100.00
54936;BME280;40838;50.676;7.838;2023-03-26T11:52:14;96812.06;;;3.43;100.00
54936;BME280;40838;50.676;7.838;2023-03-26T11:54:41;96809.16;;;3.29;100.00
54936;BME280;40838;50.676;7.838;2023-03-26T11:57:16;96801.28;;;3.39;100.00
54936;BME280;40838;50.676;7.838;2023-03-26T11:59:50;96798.66;;;3.29;100.00
54936;BME280;40838;50.676;7.838;2023-03-26T12:02:24;96794.97;;;3.25;100.00
54936;BME280;40838;50.676;7.838;2023-03-26T12:05:14;96793.38;;;3.24;100.00
54936;BME280;40838;50.676;7.838;2023-03-26T12:07:49;96782.91;;;2.88;100.00
54936;BME280;40838;50.676;7.838;2023-03-26T12:10:26;96778.19;;;2.65;100.00
54936;BME280;40838;50.676;7.838;2023-03-26T12:12:56;96786.09;;;2.75;100.00
54936;BME280;40838;50.676;7.838;2023-03-26T12:15:26;96788.16;;;2.62;100.00
54936;BME280;40838;50.676;7.838;2023-03-26T12:17:56;96775.81;;;2.89;100.00
54936;BME280;40838;50.676;7.838;2023-03-26T12:20:35;96777.41;;;2.90;100.00
54936;BME280;40838;50.676;7.838;2023-03-26T12:23:05;96765.00;;;3.16;100.00
54936;BME280;40838;50.676;7.838;2023-03-26T12:25:34;96767.88;;;3.09;100.00
54936;BME280;40838;50.676;7.838;2023-03-26T12:28:09;96771.09;;;2.75;100.00
54936;BME280;40838;50.676;7.838;2023-03-26T12:30:51;96777.66;;;2.78;100.00
54936;BME280;40838;50.676;7.838;2023-03-26T12:33:23;96760.25;;;3.18;100.00
54936;BME280;40838;50.676;7.838;2023-03-26T12:35:51;96758.38;;;3.34;100.00
54936;BME280;40838;50.676;7.838;2023-03-26T12:38:23;96756.03;;;3.06;100.00
54936;BME280;40838;50.676;7.838;2023-03-26T12:41:07;96754.38;;;3.41;100.00
54936;BME280;40838;50.676;7.838;2023-03-26T12:43:38;96749.72;;;3.88;100.00
54936;BME280;40838;50.676;7.838;2023-03-26T12:46:23;96749.75;;;3.83;100.00
54936;BME280;40838;50.676;7.838;2023-03-26T12:48:52;96744.53;;;4.22;100.00
54936;BME280;40838;50.676;7.838;2023-03-26T12:51:29;96758.03;;;4.15;100.00
54936;BME280;40838;50.676;7.838;2023-03-26T12:54:29;96746.88;;;4.29;100.00
54936;BME280;40838;50.676;7.838;2023-03-26T12:57:16;96760.66;;;3.50;100.00
54936;BME280;40838;50.676;7.838;2023-03-26T12:59:52;96758.44;;;3.03;100.00
54936;BME280;40838;50.676;7.838;2023-03-26T13:02:42;96756.75;;;4.03;100.00
54936;BME280;40838;50.676;7.838;2023-03-26T13:05:29;96779.94;;;3.41;100.00
54936;BME280;40838;50.676;7.838;2023-03-26T13:08:17;96766.00;;;3.35;100.00
54936;BME280;40838;50.676;7.838;2023-03-26T13:10:55;96787.88;;;3.15;100.00
54936;BME280;40838;50.676;7.838;2023-03-26T13:16:34;96806.22;;;2.18;100.00
54936;BME280;40838;50.676;7.838;2023-03-26T13:19:10;96792.31;;;2.28;100.00
54936;BME280;40838;50.676;7.838;2023-03-26T13:21:48;96795.16;;;2.11;100.00
54936;BME280;40838;50.676;7.838;2023-03-26T13:24:27;96808.81;;;2.08;100.00
54936;BME280;40838;50.676;7.838;2023-03-26T13:27:04;96802.31;;;2.31;100.00
54936;BME280;40838;50.676;7.838;2023-03-26T13:29:40;96793.06;;;2.18;100.00
54936;BME280;40838;50.676;7.838;2023-03-26T13:32:14;96778.38;;;2.27;100.00
54936;BME280;40838;50.676;7.838;2023-03-26T13:34:54;96781.28;;;2.26;100.00
54936;BME280;40838;50.676;7.838;2023-03-26T13:37:30;96777.09;;;2.45;100.00
54936;BME280;40838;50.676;7.838;2023-03-26T13:40:07;96770.81;;;2.51;100.00
54936;BME280;40838;50.676;7.838;2023-03-26T13:42:46;96769.50;;;2.84;100.00
54936;BME280;40838;50.676;7.838;2023-03-26T13:45:32;96769.47;;;2.95;100.00
54936;BME280;40838;50.676;7.838;2023-03-26T13:48:12;96766.28;;;2.36;100.00
54936;BME280;40838;50.676;7.838;2023-03-26T13:50:47;96770.56;;;2.78;100.00
54936;BME280;40838;50.676;7.838;2023-03-26T13:53:20;96761.09;;;2.67;100.00
54936;BME280;40838;50.676;7.838;2023-03-26T13:55:52;96764.75;;;2.97;100.00
54936;BME280;40838;50.676;7.838;2023-03-26T13:58:23;96764.75;;;2.51;100.00
54936;BME280;40838;50.676;7.838;2023-03-26T14:00:57;96766.84;;;3.10;100.00
54936;BME280;40838;50.676;7.838;2023-03-26T14:03:37;96772.63;;;3.12;100.00
54936;BME280;40838;50.676;7.838;2023-03-26T14:06:13;96768.44;;;2.96;100.00
54936;BME280;40838;50.676;7.838;2023-03-26T14:08:43;96767.38;;;3.07;100.00
54936;BME280;40838;50.676;7.838;2023-03-26T14:11:14;96755.81;;;5.97;100.00
54936;BME280;40838;50.676;7.838;2023-03-26T14:13:46;96753.28;;;5.87;100.00
54936;BME280;40838;50.676;7.838;2023-03-26T14:16:17;96752.03;;;6.03;100.00
54936;BME280;40838;50.676;7.838;2023-03-26T14:18:51;96756.44;;;5.89;100.00
54936;BME280;40838;50.676;7.838;2023-03-26T14:21:53;96757.84;;;5.57;100.00
54936;BME280;40838;50.676;7.838;2023-03-26T14:24:45;96761.03;;;5.78;100.00
54936;BME280;40838;50.676;7.838;2023-03-26T14:27:29;96763.78;;;5.92;100.00